aviador You're here:

KRCM Decoded Metar

in _UNIDENTIFIED
Report Time2018-01-22 02:15:00
UTC Time2018-01-22 02:04:09
Flight Rules vfr VFR
Wind140° at 12 Gusting to 16 kt
W.Decomp.*RWY 13: 12.0 kt HW 0.6 kt RCW
RWY 18: 8.2 kt HW 8.8 kt LCW
W.Rank140° ranks 6
Current wind is above 140° avg. (6.7)
Visibility9999 m
Phenomena:N/A
Clouds:Broken 060 Hf
Broken 075 Hf
Broken 090 Hf
Expected CloudBase > 2,000 ft AGL from Temp-Dew spread
Ceiling6,000 ft
Temp16°C (ISA +3)
Dew Point11°C (72% RH)
AAT12.0°C
QNH1004 hPa
Density Alt1,591 ft
Elevation801 ft
Report Wrong Elevation
Raw Report
KRCM 220215Z AUTO 14012G16KT 10SM BKN060 BKN075 BKN090 16/11 A2964
RMK AO2=

Extra information for KRCM:More info

Metar Taf Metar & Taf Last 4 Metars F.Rules Stats Wind Profile Meteogram Temp Stats Metar ALERT Operation Metar Decoded Social comments